X  Fermer Observations météorologiques des aéroports: METeorological Aerodrome Report.     LFLL Lyon Saint-Exupéry Airport
Température
0°C Température
-2°C Point de rosée
87% Humidité



Vent
8 KM/H
5 MPH
2 M/S
4 KTS



300°
ONO
Conditions actuelles

Ciel dégagé Ciel dégagé
Pression 1024.92 (hPa) - 30.27 (inHg)
Visibilité 6.2 (miles) - 10 (km)
Temps actuel Metar LYON
Code de l'aéroport LFLL

Emplacement: Lyon Saint-Exupéry Airport
Distance: 67 (km)

Metar:
LFLL 140530Z 30004KT CAVOK M00/M02 Q1025 NOSIG

Temps: 14-04-2021 07:30 CEST